Maldives

Resources for Maldives vACC

Active Sector File
vatwa-srm.rar | Release date 6/1/2016 | Downloads 40 | File Size 0.55 MB

Alias File
vccc-vrmf-alias.zip | Downloads 32 | File Size 2.11 KB

Position File
vccc-vrmf-pof.zip | Downloads 27 | File Size 3.03 KB

Crib File
VRMM_Crib.pdf | Downloads 38 | File Size 0.54 MB 

VATSIM Metar for Maldives
VRMM 130800Z 35004KT 9999 FEW017TCU BKN110 30/24 Q1007 TEMPO 5000 -SHRA